sensor_id;sensor_type;location;lat;lon;timestamp;P1;durP1;ratioP1;P2;durP2;ratioP2
34725;SDS011;20951;50.818;4.344;2023-04-03T00:02:21;10.85;;;6.93;;
34725;SDS011;20951;50.818;4.344;2023-04-03T00:04:47;12.32;;;6.85;;
34725;SDS011;20951;50.818;4.344;2023-04-03T00:07:14;12.65;;;6.78;;
34725;SDS011;20951;50.818;4.344;2023-04-03T00:09:42;12.52;;;7.13;;
34725;SDS011;20951;50.818;4.344;2023-04-03T00:12:10;10.30;;;7.38;;
34725;SDS011;20951;50.818;4.344;2023-04-03T00:14:38;12.00;;;7.38;;
34725;SDS011;20951;50.818;4.344;2023-04-03T00:17:06;14.30;;;7.35;;
34725;SDS011;20951;50.818;4.344;2023-04-03T00:19:34;12.25;;;7.13;;
34725;SDS011;20951;50.818;4.344;2023-04-03T00:22:01;11.55;;;6.80;;
34725;SDS011;20951;50.818;4.344;2023-04-03T00:24:30;9.60;;;7.07;;
34725;SDS011;20951;50.818;4.344;2023-04-03T00:26:58;12.95;;;7.85;;
34725;SDS011;20951;50.818;4.344;2023-04-03T00:29:26;11.43;;;6.82;;
34725;SDS011;20951;50.818;4.344;2023-04-03T00:31:55;12.25;;;7.45;;
34725;SDS011;20951;50.818;4.344;2023-04-03T00:34:23;11.77;;;7.47;;
34725;SDS011;20951;50.818;4.344;2023-04-03T00:36:49;12.38;;;7.13;;
34725;SDS011;20951;50.818;4.344;2023-04-03T00:39:16;11.73;;;6.82;;
34725;SDS011;20951;50.818;4.344;2023-04-03T00:41:42;14.18;;;7.68;;
34725;SDS011;20951;50.818;4.344;2023-04-03T00:44:19;11.77;;;6.88;;
34725;SDS011;20951;50.818;4.344;2023-04-03T00:47:08;10.05;;;6.97;;
34725;SDS011;20951;50.818;4.344;2023-04-03T00:49:41;9.37;;;6.57;;
34725;SDS011;20951;50.818;4.344;2023-04-03T00:52:08;10.73;;;6.78;;
34725;SDS011;20951;50.818;4.344;2023-04-03T00:54:41;12.05;;;7.28;;
34725;SDS011;20951;50.818;4.344;2023-04-03T00:57:08;12.38;;;7.15;;
34725;SDS011;20951;50.818;4.344;2023-04-03T00:59:38;13.38;;;7.43;;
34725;SDS011;20951;50.818;4.344;2023-04-03T01:02:14;10.57;;;6.88;;
34725;SDS011;20951;50.818;4.344;2023-04-03T01:04:41;14.35;;;7.20;;
34725;SDS011;20951;50.818;4.344;2023-04-03T01:09:45;11.73;;;7.13;;
34725;SDS011;20951;50.818;4.344;2023-04-03T01:12:26;14.98;;;7.63;;
34725;SDS011;20951;50.818;4.344;2023-04-03T01:15:05;11.88;;;7.22;;
34725;SDS011;20951;50.818;4.344;2023-04-03T01:17:33;10.73;;;7.22;;
34725;SDS011;20951;50.818;4.344;2023-04-03T01:25:58;11.77;;;7.32;;
34725;SDS011;20951;50.818;4.344;2023-04-03T01:28:31;13.93;;;7.50;;
34725;SDS011;20951;50.818;4.344;2023-04-03T01:33:45;12.73;;;7.40;;
34725;SDS011;20951;50.818;4.344;2023-04-03T01:36:14;12.68;;;7.75;;
34725;SDS011;20951;50.818;4.344;2023-04-03T01:38:44;11.63;;;6.93;;
34725;SDS011;20951;50.818;4.344;2023-04-03T01:41:10;9.90;;;6.80;;
34725;SDS011;20951;50.818;4.344;2023-04-03T01:43:36;11.68;;;7.38;;
34725;SDS011;20951;50.818;4.344;2023-04-03T01:46:02;12.40;;;7.68;;
34725;SDS011;20951;50.818;4.344;2023-04-03T01:48:28;13.98;;;7.97;;
34725;SDS011;20951;50.818;4.344;2023-04-03T01:50:54;12.02;;;7.45;;
34725;SDS011;20951;50.818;4.344;2023-04-03T01:53:20;12.68;;;7.53;;
34725;SDS011;20951;50.818;4.344;2023-04-03T01:55:46;11.30;;;7.00;;
34725;SDS011;20951;50.818;4.344;2023-04-03T01:58:12;12.00;;;6.88;;
34725;SDS011;20951;50.818;4.344;2023-04-03T02:00:38;11.55;;;7.63;;
34725;SDS011;20951;50.818;4.344;2023-04-03T02:03:04;11.55;;;7.88;;
34725;SDS011;20951;50.818;4.344;2023-04-03T02:05:30;12.80;;;7.88;;
34725;SDS011;20951;50.818;4.344;2023-04-03T02:07:56;12.80;;;7.32;;
34725;SDS011;20951;50.818;4.344;2023-04-03T02:10:22;14.38;;;7.50;;
34725;SDS011;20951;50.818;4.344;2023-04-03T02:12:48;15.93;;;8.55;;
34725;SDS011;20951;50.818;4.344;2023-04-03T02:15:13;12.20;;;7.72;;
34725;SDS011;20951;50.818;4.344;2023-04-03T02:17:40;11.40;;;7.88;;
34725;SDS011;20951;50.818;4.344;2023-04-03T02:20:06;13.15;;;7.53;;
34725;SDS011;20951;50.818;4.344;2023-04-03T02:22:32;12.98;;;7.90;;
34725;SDS011;20951;50.818;4.344;2023-04-03T02:24:58;10.15;;;7.00;;
34725;SDS011;20951;50.818;4.344;2023-04-03T02:27:24;13.27;;;7.93;;
34725;SDS011;20951;50.818;4.344;2023-04-03T02:29:50;16.63;;;8.20;;
34725;SDS011;20951;50.818;4.344;2023-04-03T02:32:16;12.57;;;7.82;;
34725;SDS011;20951;50.818;4.344;2023-04-03T02:34:42;11.40;;;7.40;;
34725;SDS011;20951;50.818;4.344;2023-04-03T02:37:08;11.30;;;7.97;;
34725;SDS011;20951;50.818;4.344;2023-04-03T02:39:34;12.15;;;7.85;;
34725;SDS011;20951;50.818;4.344;2023-04-03T02:42:00;10.80;;;7.93;;
34725;SDS011;20951;50.818;4.344;2023-04-03T02:44:26;12.07;;;7.75;;
34725;SDS011;20951;50.818;4.344;2023-04-03T02:46:52;10.63;;;7.55;;
34725;SDS011;20951;50.818;4.344;2023-04-03T02:49:18;13.02;;;8.05;;
34725;SDS011;20951;50.818;4.344;2023-04-03T02:51:44;13.20;;;8.15;;
34725;SDS011;20951;50.818;4.344;2023-04-03T02:54:10;15.90;;;7.88;;
34725;SDS011;20951;50.818;4.344;2023-04-03T02:56:36;11.07;;;7.57;;
34725;SDS011;20951;50.818;4.344;2023-04-03T02:59:02;12.82;;;8.00;;
34725;SDS011;20951;50.818;4.344;2023-04-03T03:01:28;12.10;;;7.93;;
34725;SDS011;20951;50.818;4.344;2023-04-03T03:03:56;12.07;;;7.75;;
34725;SDS011;20951;50.818;4.344;2023-04-03T03:06:23;13.63;;;7.65;;
34725;SDS011;20951;50.818;4.344;2023-04-03T03:08:49;11.20;;;7.22;;
34725;SDS011;20951;50.818;4.344;2023-04-03T03:11:15;11.65;;;7.70;;
34725;SDS011;20951;50.818;4.344;2023-04-03T03:13:41;11.45;;;7.60;;
34725;SDS011;20951;50.818;4.344;2023-04-03T03:16:07;14.38;;;8.10;;
34725;SDS011;20951;50.818;4.344;2023-04-03T03:18:33;13.35;;;8.73;;
34725;SDS011;20951;50.818;4.344;2023-04-03T03:21:00;12.20;;;8.23;;
34725;SDS011;20951;50.818;4.344;2023-04-03T03:23:27;13.55;;;7.65;;
34725;SDS011;20951;50.818;4.344;2023-04-03T03:26:00;11.50;;;7.68;;
34725;SDS011;20951;50.818;4.344;2023-04-03T03:28:28;12.15;;;7.90;;
34725;SDS011;20951;50.818;4.344;2023-04-03T03:30:54;11.88;;;7.80;;
34725;SDS011;20951;50.818;4.344;2023-04-03T03:33:21;13.75;;;8.15;;
34725;SDS011;20951;50.818;4.344;2023-04-03T03:35:47;12.88;;;7.57;;
34725;SDS011;20951;50.818;4.344;2023-04-03T03:38:13;11.23;;;7.55;;
34725;SDS011;20951;50.818;4.344;2023-04-03T03:40:39;12.68;;;8.25;;
34725;SDS011;20951;50.818;4.344;2023-04-03T03:43:05;13.25;;;8.43;;
34725;SDS011;20951;50.818;4.344;2023-04-03T03:45:31;13.38;;;8.00;;
34725;SDS011;20951;50.818;4.344;2023-04-03T03:47:56;12.68;;;7.80;;
34725;SDS011;20951;50.818;4.344;2023-04-03T03:50:22;11.55;;;7.97;;
34725;SDS011;20951;50.818;4.344;2023-04-03T03:52:48;12.90;;;8.20;;
34725;SDS011;20951;50.818;4.344;2023-04-03T03:55:15;11.98;;;8.10;;
34725;SDS011;20951;50.818;4.344;2023-04-03T03:57:40;12.82;;;8.32;;
34725;SDS011;20951;50.818;4.344;2023-04-03T04:00:06;14.52;;;8.70;;
34725;SDS011;20951;50.818;4.344;2023-04-03T04:02:33;13.95;;;8.35;;
34725;SDS011;20951;50.818;4.344;2023-04-03T04:04:59;13.80;;;8.70;;
34725;SDS011;20951;50.818;4.344;2023-04-03T04:07:25;13.85;;;8.98;;
34725;SDS011;20951;50.818;4.344;2023-04-03T04:09:53;13.38;;;8.63;;
34725;SDS011;20951;50.818;4.344;2023-04-03T04:12:19;11.40;;;8.75;;
34725;SDS011;20951;50.818;4.344;2023-04-03T04:14:45;16.60;;;8.55;;
34725;SDS011;20951;50.818;4.344;2023-04-03T04:17:14;12.30;;;8.65;;
34725;SDS011;20951;50.818;4.344;2023-04-03T04:19:40;13.85;;;9.23;;
34725;SDS011;20951;50.818;4.344;2023-04-03T04:22:06;12.88;;;8.88;;
34725;SDS011;20951;50.818;4.344;2023-04-03T04:24:32;14.88;;;8.88;;
34725;SDS011;20951;50.818;4.344;2023-04-03T04:26:58;16.25;;;9.25;;
34725;SDS011;20951;50.818;4.344;2023-04-03T04:29:24;13.02;;;9.10;;
34725;SDS011;20951;50.818;4.344;2023-04-03T04:31:50;16.05;;;10.30;;
34725;SDS011;20951;50.818;4.344;2023-04-03T04:34:16;16.63;;;9.57;;
34725;SDS011;20951;50.818;4.344;2023-04-03T04:36:42;16.55;;;9.73;;
34725;SDS011;20951;50.818;4.344;2023-04-03T04:39:08;14.05;;;9.88;;
34725;SDS011;20951;50.818;4.344;2023-04-03T04:41:34;15.57;;;9.75;;
34725;SDS011;20951;50.818;4.344;2023-04-03T04:43:59;15.23;;;9.73;;
34725;SDS011;20951;50.818;4.344;2023-04-03T04:46:26;16.15;;;9.88;;
34725;SDS011;20951;50.818;4.344;2023-04-03T04:48:52;14.48;;;9.75;;
34725;SDS011;20951;50.818;4.344;2023-04-03T04:51:18;13.57;;;9.30;;
34725;SDS011;20951;50.818;4.344;2023-04-03T04:53:44;13.38;;;9.60;;
34725;SDS011;20951;50.818;4.344;2023-04-03T04:56:10;15.35;;;9.95;;
34725;SDS011;20951;50.818;4.344;2023-04-03T04:58:36;13.63;;;10.07;;
34725;SDS011;20951;50.818;4.344;2023-04-03T05:01:03;15.65;;;9.80;;
34725;SDS011;20951;50.818;4.344;2023-04-03T05:03:33;14.75;;;9.73;;
34725;SDS011;20951;50.818;4.344;2023-04-03T05:05:59;15.55;;;10.13;;
34725;SDS011;20951;50.818;4.344;2023-04-03T05:08:25;15.38;;;9.65;;
34725;SDS011;20951;50.818;4.344;2023-04-03T05:10:52;14.40;;;10.32;;
34725;SDS011;20951;50.818;4.344;2023-04-03T05:13:18;14.10;;;9.90;;
34725;SDS011;20951;50.818;4.344;2023-04-03T05:15:45;16.88;;;10.13;;
34725;SDS011;20951;50.818;4.344;2023-04-03T05:18:11;15.63;;;10.77;;
34725;SDS011;20951;50.818;4.344;2023-04-03T05:20:38;16.50;;;11.13;;
34725;SDS011;20951;50.818;4.344;2023-04-03T05:23:04;15.40;;;10.45;;
34725;SDS011;20951;50.818;4.344;2023-04-03T05:25:31;14.43;;;10.95;;
34725;SDS011;20951;50.818;4.344;2023-04-03T05:27:57;16.70;;;12.40;;
34725;SDS011;20951;50.818;4.344;2023-04-03T05:30:23;15.25;;;10.88;;
34725;SDS011;20951;50.818;4.344;2023-04-03T05:32:49;15.35;;;11.10;;
34725;SDS011;20951;50.818;4.344;2023-04-03T05:35:15;18.30;;;11.07;;
34725;SDS011;20951;50.818;4.344;2023-04-03T05:37:41;21.40;;;12.13;;
34725;SDS011;20951;50.818;4.344;2023-04-03T05:40:07;16.33;;;11.50;;
34725;SDS011;20951;50.818;4.344;2023-04-03T05:42:33;18.38;;;12.13;;
34725;SDS011;20951;50.818;4.344;2023-04-03T05:44:59;20.45;;;12.43;;
34725;SDS011;20951;50.818;4.344;2023-04-03T05:47:25;17.13;;;12.40;;
34725;SDS011;20951;50.818;4.344;2023-04-03T05:49:51;14.43;;;11.27;;
34725;SDS011;20951;50.818;4.344;2023-04-03T05:52:22;18.25;;;11.77;;
34725;SDS011;20951;50.818;4.344;2023-04-03T05:54:51;16.27;;;11.63;;
34725;SDS011;20951;50.818;4.344;2023-04-03T05:57:18;16.05;;;11.43;;
34725;SDS011;20951;50.818;4.344;2023-04-03T05:59:45;18.00;;;11.90;;
34725;SDS011;20951;50.818;4.344;2023-04-03T06:02:12;16.58;;;12.40;;
34725;SDS011;20951;50.818;4.344;2023-04-03T06:04:40;17.98;;;11.43;;
34725;SDS011;20951;50.818;4.344;2023-04-03T06:07:06;15.63;;;9.75;;
34725;SDS011;20951;50.818;4.344;2023-04-03T06:09:36;14.85;;;9.43;;
34725;SDS011;20951;50.818;4.344;2023-04-03T06:12:02;13.60;;;8.52;;
34725;SDS011;20951;50.818;4.344;2023-04-03T06:14:28;12.50;;;9.40;;
34725;SDS011;20951;50.818;4.344;2023-04-03T06:16:54;14.15;;;9.77;;
34725;SDS011;20951;50.818;4.344;2023-04-03T06:19:21;15.15;;;10.43;;
34725;SDS011;20951;50.818;4.344;2023-04-03T06:21:47;14.68;;;10.38;;
34725;SDS011;20951;50.818;4.344;2023-04-03T06:24:14;16.70;;;11.02;;
34725;SDS011;20951;50.818;4.344;2023-04-03T06:26:41;14.43;;;10.45;;
34725;SDS011;20951;50.818;4.344;2023-04-03T06:29:08;15.85;;;11.20;;
34725;SDS011;20951;50.818;4.344;2023-04-03T06:31:34;16.67;;;11.30;;
34725;SDS011;20951;50.818;4.344;2023-04-03T06:34:01;20.30;;;11.13;;
34725;SDS011;20951;50.818;4.344;2023-04-03T06:36:28;15.57;;;10.77;;
34725;SDS011;20951;50.818;4.344;2023-04-03T06:38:54;15.27;;;11.00;;
34725;SDS011;20951;50.818;4.344;2023-04-03T06:41:20;16.75;;;11.00;;
34725;SDS011;20951;50.818;4.344;2023-04-03T06:43:47;16.42;;;11.82;;
34725;SDS011;20951;50.818;4.344;2023-04-03T06:46:16;19.70;;;11.70;;
34725;SDS011;20951;50.818;4.344;2023-04-03T06:48:44;15.93;;;11.98;;
34725;SDS011;20951;50.818;4.344;2023-04-03T06:51:14;16.17;;;12.50;;
34725;SDS011;20951;50.818;4.344;2023-04-03T06:53:46;17.58;;;12.93;;
34725;SDS011;20951;50.818;4.344;2023-04-03T06:56:12;19.05;;;13.38;;
34725;SDS011;20951;50.818;4.344;2023-04-03T06:58:39;18.30;;;12.90;;
34725;SDS011;20951;50.818;4.344;2023-04-03T07:01:05;19.20;;;12.98;;
34725;SDS011;20951;50.818;4.344;2023-04-03T07:03:31;16.73;;;13.15;;
34725;SDS011;20951;50.818;4.344;2023-04-03T07:05:57;21.27;;;12.57;;
34725;SDS011;20951;50.818;4.344;2023-04-03T07:08:23;17.73;;;12.52;;
34725;SDS011;20951;50.818;4.344;2023-04-03T07:10:51;20.27;;;12.68;;
34725;SDS011;20951;50.818;4.344;2023-04-03T07:13:17;21.20;;;13.00;;
34725;SDS011;20951;50.818;4.344;2023-04-03T07:15:43;18.83;;;12.32;;
34725;SDS011;20951;50.818;4.344;2023-04-03T07:18:09;19.15;;;12.30;;
34725;SDS011;20951;50.818;4.344;2023-04-03T07:20:35;20.33;;;13.02;;
34725;SDS011;20951;50.818;4.344;2023-04-03T07:23:01;17.35;;;12.35;;
34725;SDS011;20951;50.818;4.344;2023-04-03T07:25:27;17.50;;;12.13;;
34725;SDS011;20951;50.818;4.344;2023-04-03T07:27:54;16.77;;;12.10;;
34725;SDS011;20951;50.818;4.344;2023-04-03T07:30:20;17.05;;;11.88;;
34725;SDS011;20951;50.818;4.344;2023-04-03T07:32:46;16.50;;;11.95;;
34725;SDS011;20951;50.818;4.344;2023-04-03T07:35:12;17.77;;;10.32;;
34725;SDS011;20951;50.818;4.344;2023-04-03T07:37:38;12.55;;;8.98;;
34725;SDS011;20951;50.818;4.344;2023-04-03T07:40:05;12.18;;;8.10;;
34725;SDS011;20951;50.818;4.344;2023-04-03T07:42:31;12.32;;;7.65;;
34725;SDS011;20951;50.818;4.344;2023-04-03T07:44:58;11.38;;;7.05;;
34725;SDS011;20951;50.818;4.344;2023-04-03T07:47:24;9.68;;;6.43;;
34725;SDS011;20951;50.818;4.344;2023-04-03T07:49:50;12.40;;;7.00;;
34725;SDS011;20951;50.818;4.344;2023-04-03T07:52:16;11.27;;;7.20;;
34725;SDS011;20951;50.818;4.344;2023-04-03T07:54:42;9.55;;;6.55;;
34725;SDS011;20951;50.818;4.344;2023-04-03T07:57:08;11.68;;;6.63;;
34725;SDS011;20951;50.818;4.344;2023-04-03T07:59:34;10.93;;;7.03;;
34725;SDS011;20951;50.818;4.344;2023-04-03T08:02:00;8.40;;;6.78;;
34725;SDS011;20951;50.818;4.344;2023-04-03T08:04:26;10.00;;;6.75;;
34725;SDS011;20951;50.818;4.344;2023-04-03T08:06:52;13.68;;;6.50;;
34725;SDS011;20951;50.818;4.344;2023-04-03T08:09:18;11.30;;;6.88;;
34725;SDS011;20951;50.818;4.344;2023-04-03T08:11:44;11.55;;;6.50;;
34725;SDS011;20951;50.818;4.344;2023-04-03T08:14:10;9.05;;;6.28;;
34725;SDS011;20951;50.818;4.344;2023-04-03T08:16:41;11.00;;;6.50;;
34725;SDS011;20951;50.818;4.344;2023-04-03T08:19:09;8.52;;;5.60;;
34725;SDS011;20951;50.818;4.344;2023-04-03T08:21:36;12.52;;;5.00;;
34725;SDS011;20951;50.818;4.344;2023-04-03T08:24:02;9.10;;;5.28;;
34725;SDS011;20951;50.818;4.344;2023-04-03T08:26:29;7.93;;;5.43;;
34725;SDS011;20951;50.818;4.344;2023-04-03T08:28:55;9.35;;;5.75;;
34725;SDS011;20951;50.818;4.344;2023-04-03T08:31:21;9.35;;;5.28;;
34725;SDS011;20951;50.818;4.344;2023-04-03T08:33:47;10.27;;;5.80;;
34725;SDS011;20951;50.818;4.344;2023-04-03T08:36:27;9.80;;;5.80;;
34725;SDS011;20951;50.818;4.344;2023-04-03T08:38:54;9.05;;;4.88;;
34725;SDS011;20951;50.818;4.344;2023-04-03T08:41:35;8.35;;;4.72;;
34725;SDS011;20951;50.818;4.344;2023-04-03T08:50:05;8.55;;;5.25;;
34725;SDS011;20951;50.818;4.344;2023-04-03T08:52:40;8.80;;;5.13;;
34725;SDS011;20951;50.818;4.344;2023-04-03T08:55:20;9.95;;;5.28;;
34725;SDS011;20951;50.818;4.344;2023-04-03T08:58:03;7.90;;;4.90;;
34725;SDS011;20951;50.818;4.344;2023-04-03T09:00:47;11.93;;;5.22;;
34725;SDS011;20951;50.818;4.344;2023-04-03T09:03:19;8.75;;;5.05;;
34725;SDS011;20951;50.818;4.344;2023-04-03T09:08:47;11.43;;;5.22;;
34725;SDS011;20951;50.818;4.344;2023-04-03T09:16:54;7.97;;;5.10;;
34725;SDS011;20951;50.818;4.344;2023-04-03T09:21:56;8.88;;;4.03;;
34725;SDS011;20951;50.818;4.344;2023-04-03T09:24:24;7.88;;;4.40;;
34725;SDS011;20951;50.818;4.344;2023-04-03T09:27:03;7.32;;;3.55;;
34725;SDS011;20951;50.818;4.344;2023-04-03T09:29:33;12.52;;;4.72;;
34725;SDS011;20951;50.818;4.344;2023-04-03T09:34:56;7.55;;;3.83;;
34725;SDS011;20951;50.818;4.344;2023-04-03T09:37:42;8.00;;;3.63;;
34725;SDS011;20951;50.818;4.344;2023-04-03T09:42:58;6.65;;;3.30;;
34725;SDS011;20951;50.818;4.344;2023-04-03T09:48:04;5.78;;;2.85;;
34725;SDS011;20951;50.818;4.344;2023-04-03T09:53:29;9.75;;;3.45;;
34725;SDS011;20951;50.818;4.344;2023-04-03T09:58:43;6.45;;;2.80;;
34725;SDS011;20951;50.818;4.344;2023-04-03T10:06:31;7.30;;;3.30;;
34725;SDS011;20951;50.818;4.344;2023-04-03T10:09:05;6.68;;;3.20;;
34725;SDS011;20951;50.818;4.344;2023-04-03T10:11:56;7.07;;;3.13;;
34725;SDS011;20951;50.818;4.344;2023-04-03T10:14:23;6.60;;;3.05;;
34725;SDS011;20951;50.818;4.344;2023-04-03T10:33:33;5.80;;;2.40;;
34725;SDS011;20951;50.818;4.344;2023-04-03T10:36:25;5.15;;;2.58;;
34725;SDS011;20951;50.818;4.344;2023-04-03T10:39:13;5.78;;;2.33;;
34725;SDS011;20951;50.818;4.344;2023-04-03T10:42:15;5.80;;;2.45;;
34725;SDS011;20951;50.818;4.344;2023-04-03T10:48:02;5.35;;;2.33;;
34725;SDS011;20951;50.818;4.344;2023-04-03T10:53:51;5.78;;;2.35;;
34725;SDS011;20951;50.818;4.344;2023-04-03T11:01:48;9.35;;;3.45;;
34725;SDS011;20951;50.818;4.344;2023-04-03T11:04:20;5.03;;;2.20;;
34725;SDS011;20951;50.818;4.344;2023-04-03T11:06:53;7.57;;;2.60;;
34725;SDS011;20951;50.818;4.344;2023-04-03T11:09:33;6.60;;;2.40;;
34725;SDS011;20951;50.818;4.344;2023-04-03T11:12:11;4.95;;;2.10;;
34725;SDS011;20951;50.818;4.344;2023-04-03T11:14:41;5.22;;;2.40;;
34725;SDS011;20951;50.818;4.344;2023-04-03T11:19:59;4.68;;;2.05;;
34725;SDS011;20951;50.818;4.344;2023-04-03T11:23:00;6.63;;;2.38;;
34725;SDS011;20951;50.818;4.344;2023-04-03T11:25:43;4.95;;;1.90;;
34725;SDS011;20951;50.818;4.344;2023-04-03T11:28:14;5.22;;;1.80;;
34725;SDS011;20951;50.818;4.344;2023-04-03T11:30:52;5.25;;;1.85;;
34725;SDS011;20951;50.818;4.344;2023-04-03T11:33:36;6.20;;;2.10;;
34725;SDS011;20951;50.818;4.344;2023-04-03T11:36:18;5.40;;;1.85;;
34725;SDS011;20951;50.818;4.344;2023-04-03T11:38:48;5.47;;;1.80;;
34725;SDS011;20951;50.818;4.344;2023-04-03T11:41:17;5.05;;;1.80;;
34725;SDS011;20951;50.818;4.344;2023-04-03T11:44:01;4.63;;;2.13;;
34725;SDS011;20951;50.818;4.344;2023-04-03T11:53:03;5.78;;;2.05;;
34725;SDS011;20951;50.818;4.344;2023-04-03T12:26:38;4.80;;;2.00;;
34725;SDS011;20951;50.818;4.344;2023-04-03T12:31:48;5.05;;;1.90;;
34725;SDS011;20951;50.818;4.344;2023-04-03T12:43:02;7.68;;;4.15;;
34725;SDS011;20951;50.818;4.344;2023-04-03T12:48:27;3.60;;;1.40;;
34725;SDS011;20951;50.818;4.344;2023-04-03T12:50:55;6.40;;;1.60;;
34725;SDS011;20951;50.818;4.344;2023-04-03T12:59:15;5.45;;;2.03;;
34725;SDS011;20951;50.818;4.344;2023-04-03T13:01:55;5.07;;;1.80;;
34725;SDS011;20951;50.818;4.344;2023-04-03T13:04:25;4.43;;;1.73;;
34725;SDS011;20951;50.818;4.344;2023-04-03T13:06:54;6.43;;;1.73;;
34725;SDS011;20951;50.818;4.344;2023-04-03T13:11:51;5.25;;;1.88;;
34725;SDS011;20951;50.818;4.344;2023-04-03T13:14:35;3.97;;;1.67;;
34725;SDS011;20951;50.818;4.344;2023-04-03T13:17:04;4.13;;;1.42;;
34725;SDS011;20951;50.818;4.344;2023-04-03T13:19:38;4.60;;;1.65;;
34725;SDS011;20951;50.818;4.344;2023-04-03T13:22:08;6.15;;;1.60;;
34725;SDS011;20951;50.818;4.344;2023-04-03T13:24:44;3.45;;;1.50;;
34725;SDS011;20951;50.818;4.344;2023-04-03T13:27:14;3.58;;;1.70;;
34725;SDS011;20951;50.818;4.344;2023-04-03T13:29:41;5.28;;;1.80;;
34725;SDS011;20951;50.818;4.344;2023-04-03T13:32:07;4.05;;;1.65;;
34725;SDS011;20951;50.818;4.344;2023-04-03T13:34:47;3.92;;;1.50;;
34725;SDS011;20951;50.818;4.344;2023-04-03T13:37:28;3.75;;;1.33;;
34725;SDS011;20951;50.818;4.344;2023-04-03T13:42:36;5.38;;;1.58;;
34725;SDS011;20951;50.818;4.344;2023-04-03T13:50:50;6.20;;;1.67;;
34725;SDS011;20951;50.818;4.344;2023-04-03T13:53:19;3.78;;;1.70;;
34725;SDS011;20951;50.818;4.344;2023-04-03T13:55:56;4.32;;;1.83;;
34725;SDS011;20951;50.818;4.344;2023-04-03T13:58:33;4.63;;;1.73;;
34725;SDS011;20951;50.818;4.344;2023-04-03T14:01:08;5.35;;;1.92;;
34725;SDS011;20951;50.818;4.344;2023-04-03T14:03:40;6.05;;;2.00;;
34725;SDS011;20951;50.818;4.344;2023-04-03T14:06:18;4.80;;;1.88;;
34725;SDS011;20951;50.818;4.344;2023-04-03T14:08:47;4.28;;;1.92;;
34725;SDS011;20951;50.818;4.344;2023-04-03T14:11:18;5.07;;;1.95;;
34725;SDS011;20951;50.818;4.344;2023-04-03T14:13:47;5.87;;;1.63;;
34725;SDS011;20951;50.818;4.344;2023-04-03T14:16:14;5.65;;;2.10;;
34725;SDS011;20951;50.818;4.344;2023-04-03T14:18:43;5.13;;;1.92;;
34725;SDS011;20951;50.818;4.344;2023-04-03T14:21:11;6.72;;;1.90;;
34725;SDS011;20951;50.818;4.344;2023-04-03T14:23:38;4.93;;;2.05;;
34725;SDS011;20951;50.818;4.344;2023-04-03T14:26:08;4.40;;;1.77;;
34725;SDS011;20951;50.818;4.344;2023-04-03T14:28:41;5.43;;;1.77;;
34725;SDS011;20951;50.818;4.344;2023-04-03T14:31:09;5.25;;;1.80;;
34725;SDS011;20951;50.818;4.344;2023-04-03T14:33:36;5.38;;;2.00;;
34725;SDS011;20951;50.818;4.344;2023-04-03T14:36:21;3.40;;;1.48;;
34725;SDS011;20951;50.818;4.344;2023-04-03T14:38:52;4.25;;;1.75;;
34725;SDS011;20951;50.818;4.344;2023-04-03T14:41:20;8.70;;;2.10;;
34725;SDS011;20951;50.818;4.344;2023-04-03T14:43:47;6.32;;;2.20;;
34725;SDS011;20951;50.818;4.344;2023-04-03T14:46:18;6.53;;;2.03;;
34725;SDS011;20951;50.818;4.344;2023-04-03T14:48:48;4.65;;;1.80;;
34725;SDS011;20951;50.818;4.344;2023-04-03T14:51:15;6.15;;;2.15;;
34725;SDS011;20951;50.818;4.344;2023-04-03T14:53:41;6.53;;;2.10;;
34725;SDS011;20951;50.818;4.344;2023-04-03T14:56:12;4.72;;;1.75;;
34725;SDS011;20951;50.818;4.344;2023-04-03T14:58:48;2.92;;;1.55;;
34725;SDS011;20951;50.818;4.344;2023-04-03T15:01:16;5.47;;;1.92;;
34725;SDS011;20951;50.818;4.344;2023-04-03T15:03:42;5.10;;;1.80;;
34725;SDS011;20951;50.818;4.344;2023-04-03T15:06:10;4.32;;;1.60;;
34725;SDS011;20951;50.818;4.344;2023-04-03T15:08:37;5.70;;;1.90;;
34725;SDS011;20951;50.818;4.344;2023-04-03T15:11:06;5.57;;;1.88;;
34725;SDS011;20951;50.818;4.344;2023-04-03T15:13:32;4.50;;;1.60;;
34725;SDS011;20951;50.818;4.344;2023-04-03T15:15:58;4.50;;;1.70;;
34725;SDS011;20951;50.818;4.344;2023-04-03T15:18:25;4.35;;;1.60;;
34725;SDS011;20951;50.818;4.344;2023-04-03T15:20:53;4.65;;;1.90;;
34725;SDS011;20951;50.818;4.344;2023-04-03T15:23:20;5.15;;;1.80;;
34725;SDS011;20951;50.818;4.344;2023-04-03T15:25:51;4.65;;;1.88;;
34725;SDS011;20951;50.818;4.344;2023-04-03T15:30:56;4.30;;;1.60;;
34725;SDS011;20951;50.818;4.344;2023-04-03T15:33:22;4.20;;;1.50;;
34725;SDS011;20951;50.818;4.344;2023-04-03T15:35:48;4.35;;;1.83;;
34725;SDS011;20951;50.818;4.344;2023-04-03T15:38:14;7.47;;;1.92;;
34725;SDS011;20951;50.818;4.344;2023-04-03T15:40:40;4.15;;;1.98;;
34725;SDS011;20951;50.818;4.344;2023-04-03T15:43:07;4.63;;;1.95;;
34725;SDS011;20951;50.818;4.344;2023-04-03T15:45:33;4.25;;;1.73;;
34725;SDS011;20951;50.818;4.344;2023-04-03T15:48:02;4.50;;;1.95;;
34725;SDS011;20951;50.818;4.344;2023-04-03T15:50:30;4.32;;;1.63;;
34725;SDS011;20951;50.818;4.344;2023-04-03T15:52:57;3.85;;;1.77;;
34725;SDS011;20951;50.818;4.344;2023-04-03T15:55:24;4.82;;;2.10;;
34725;SDS011;20951;50.818;4.344;2023-04-03T15:57:51;5.03;;;2.10;;
34725;SDS011;20951;50.818;4.344;2023-04-03T16:00:18;5.88;;;2.35;;
34725;SDS011;20951;50.818;4.344;2023-04-03T16:02:45;5.90;;;2.22;;
34725;SDS011;20951;50.818;4.344;2023-04-03T16:05:12;4.07;;;1.80;;
34725;SDS011;20951;50.818;4.344;2023-04-03T16:07:38;4.95;;;2.05;;
34725;SDS011;20951;50.818;4.344;2023-04-03T16:10:06;6.13;;;2.55;;
34725;SDS011;20951;50.818;4.344;2023-04-03T16:12:33;4.10;;;2.20;;
34725;SDS011;20951;50.818;4.344;2023-04-03T16:14:59;5.70;;;2.28;;
34725;SDS011;20951;50.818;4.344;2023-04-03T16:17:25;6.47;;;2.30;;
34725;SDS011;20951;50.818;4.344;2023-04-03T16:19:52;5.70;;;2.60;;
34725;SDS011;20951;50.818;4.344;2023-04-03T16:22:21;4.75;;;2.13;;
34725;SDS011;20951;50.818;4.344;2023-04-03T16:24:48;6.63;;;2.30;;
34725;SDS011;20951;50.818;4.344;2023-04-03T16:27:14;6.07;;;2.30;;
34725;SDS011;20951;50.818;4.344;2023-04-03T16:29:41;6.28;;;2.75;;
34725;SDS011;20951;50.818;4.344;2023-04-03T16:32:07;4.60;;;2.17;;
34725;SDS011;20951;50.818;4.344;2023-04-03T16:34:33;6.55;;;2.33;;
34725;SDS011;20951;50.818;4.344;2023-04-03T16:37:00;5.60;;;2.63;;
34725;SDS011;20951;50.818;4.344;2023-04-03T16:39:26;7.15;;;2.47;;
34725;SDS011;20951;50.818;4.344;2023-04-03T16:41:52;7.53;;;2.90;;
34725;SDS011;20951;50.818;4.344;2023-04-03T16:44:18;6.63;;;2.53;;
34725;SDS011;20951;50.818;4.344;2023-04-03T16:46:44;9.63;;;2.42;;
34725;SDS011;20951;50.818;4.344;2023-04-03T16:49:09;11.73;;;2.97;;
34725;SDS011;20951;50.818;4.344;2023-04-03T16:51:35;7.65;;;2.60;;
34725;SDS011;20951;50.818;4.344;2023-04-03T16:54:01;5.93;;;2.70;;
34725;SDS011;20951;50.818;4.344;2023-04-03T16:56:27;5.15;;;2.80;;
34725;SDS011;20951;50.818;4.344;2023-04-03T16:58:53;6.65;;;2.45;;
34725;SDS011;20951;50.818;4.344;2023-04-03T17:01:20;5.88;;;2.95;;
34725;SDS011;20951;50.818;4.344;2023-04-03T17:03:47;5.47;;;2.58;;
34725;SDS011;20951;50.818;4.344;2023-04-03T17:06:18;9.02;;;2.80;;
34725;SDS011;20951;50.818;4.344;2023-04-03T17:08:46;6.70;;;2.45;;
34725;SDS011;20951;50.818;4.344;2023-04-03T17:11:13;7.72;;;2.95;;
34725;SDS011;20951;50.818;4.344;2023-04-03T17:13:40;8.15;;;2.65;;
34725;SDS011;20951;50.818;4.344;2023-04-03T17:16:07;4.97;;;2.50;;
34725;SDS011;20951;50.818;4.344;2023-04-03T17:18:36;5.78;;;2.70;;